sensor_id;sensor_type;location;lat;lon;timestamp;P1;durP1;ratioP1;P2;durP2;ratioP2
77010;SDS011;65945;53.148;17.956;2023-02-01T00:00:58;13.20;;;1.80;;
77010;SDS011;65945;53.148;17.956;2023-02-01T00:03:26;6.60;;;1.60;;
77010;SDS011;65945;53.148;17.956;2023-02-01T00:05:57;11.40;;;1.80;;
77010;SDS011;65945;53.148;17.956;2023-02-01T00:08:24;13.80;;;2.00;;
77010;SDS011;65945;53.148;17.956;2023-02-01T00:10:58;7.70;;;1.80;;
77010;SDS011;65945;53.148;17.956;2023-02-01T00:13:30;7.60;;;1.40;;
77010;SDS011;65945;53.148;17.956;2023-02-01T00:18:32;10.90;;;2.00;;
77010;SDS011;65945;53.148;17.956;2023-02-01T00:20:58;11.70;;;2.30;;
77010;SDS011;65945;53.148;17.956;2023-02-01T00:23:26;7.90;;;1.50;;
77010;SDS011;65945;53.148;17.956;2023-02-01T00:25:53;7.20;;;1.70;;
77010;SDS011;65945;53.148;17.956;2023-02-01T00:28:19;9.60;;;1.50;;
77010;SDS011;65945;53.148;17.956;2023-02-01T00:30:46;14.00;;;2.40;;
77010;SDS011;65945;53.148;17.956;2023-02-01T00:33:12;6.40;;;1.70;;
77010;SDS011;65945;53.148;17.956;2023-02-01T00:35:39;9.30;;;1.60;;
77010;SDS011;65945;53.148;17.956;2023-02-01T00:38:06;6.70;;;1.60;;
77010;SDS011;65945;53.148;17.956;2023-02-01T00:40:32;13.50;;;1.80;;
77010;SDS011;65945;53.148;17.956;2023-02-01T00:42:59;17.00;;;1.90;;
77010;SDS011;65945;53.148;17.956;2023-02-01T00:45:25;12.90;;;2.10;;
77010;SDS011;65945;53.148;17.956;2023-02-01T00:47:52;12.30;;;2.20;;
77010;SDS011;65945;53.148;17.956;2023-02-01T00:50:18;11.80;;;1.70;;
77010;SDS011;65945;53.148;17.956;2023-02-01T00:52:45;8.10;;;1.90;;
77010;SDS011;65945;53.148;17.956;2023-02-01T00:55:12;18.40;;;2.70;;
77010;SDS011;65945;53.148;17.956;2023-02-01T00:57:39;9.50;;;2.00;;
77010;SDS011;65945;53.148;17.956;2023-02-01T01:00:05;9.00;;;1.60;;
77010;SDS011;65945;53.148;17.956;2023-02-01T01:02:33;5.80;;;1.70;;
77010;SDS011;65945;53.148;17.956;2023-02-01T01:04:59;9.60;;;2.10;;
77010;SDS011;65945;53.148;17.956;2023-02-01T01:07:27;14.90;;;2.00;;
77010;SDS011;65945;53.148;17.956;2023-02-01T01:09:54;11.30;;;2.80;;
77010;SDS011;65945;53.148;17.956;2023-02-01T01:12:21;12.40;;;3.00;;
77010;SDS011;65945;53.148;17.956;2023-02-01T01:14:47;19.00;;;4.90;;
77010;SDS011;65945;53.148;17.956;2023-02-01T01:17:14;18.70;;;5.00;;
77010;SDS011;65945;53.148;17.956;2023-02-01T01:19:41;14.20;;;4.60;;
77010;SDS011;65945;53.148;17.956;2023-02-01T01:22:07;15.50;;;4.60;;
77010;SDS011;65945;53.148;17.956;2023-02-01T01:24:34;10.70;;;3.10;;
77010;SDS011;65945;53.148;17.956;2023-02-01T01:27:00;10.50;;;2.90;;
77010;SDS011;65945;53.148;17.956;2023-02-01T01:29:27;9.70;;;2.60;;
77010;SDS011;65945;53.148;17.956;2023-02-01T01:31:54;12.10;;;2.60;;
77010;SDS011;65945;53.148;17.956;2023-02-01T01:34:20;11.80;;;1.80;;
77010;SDS011;65945;53.148;17.956;2023-02-01T01:36:47;10.20;;;1.90;;
77010;SDS011;65945;53.148;17.956;2023-02-01T01:39:13;11.40;;;1.70;;
77010;SDS011;65945;53.148;17.956;2023-02-01T01:41:40;12.40;;;1.90;;
77010;SDS011;65945;53.148;17.956;2023-02-01T01:47:27;8.90;;;1.70;;
77010;SDS011;65945;53.148;17.956;2023-02-01T01:50:00;8.80;;;1.70;;
77010;SDS011;65945;53.148;17.956;2023-02-01T01:52:28;10.70;;;1.70;;
77010;SDS011;65945;53.148;17.956;2023-02-01T01:54:54;15.40;;;1.40;;
77010;SDS011;65945;53.148;17.956;2023-02-01T01:57:24;9.90;;;2.10;;
77010;SDS011;65945;53.148;17.956;2023-02-01T02:02:57;9.40;;;2.20;;
77010;SDS011;65945;53.148;17.956;2023-02-01T02:05:29;9.50;;;1.40;;
77010;SDS011;65945;53.148;17.956;2023-02-01T02:07:58;9.20;;;2.40;;
77010;SDS011;65945;53.148;17.956;2023-02-01T02:10:27;8.90;;;1.80;;
77010;SDS011;65945;53.148;17.956;2023-02-01T02:13:13;10.10;;;2.10;;
77010;SDS011;65945;53.148;17.956;2023-02-01T02:22:18;5.70;;;1.20;;
77010;SDS011;65945;53.148;17.956;2023-02-01T02:27:28;10.30;;;1.80;;
77010;SDS011;65945;53.148;17.956;2023-02-01T02:30:50;7.50;;;1.40;;
77010;SDS011;65945;53.148;17.956;2023-02-01T02:33:18;11.80;;;2.30;;
77010;SDS011;65945;53.148;17.956;2023-02-01T02:38:57;11.70;;;1.70;;
77010;SDS011;65945;53.148;17.956;2023-02-01T02:41:35;13.10;;;1.40;;
77010;SDS011;65945;53.148;17.956;2023-02-01T02:44:47;9.00;;;1.30;;
77010;SDS011;65945;53.148;17.956;2023-02-01T02:53:23;9.30;;;1.60;;
77010;SDS011;65945;53.148;17.956;2023-02-01T02:56:15;10.10;;;1.60;;
77010;SDS011;65945;53.148;17.956;2023-02-01T02:59:03;7.70;;;1.80;;
77010;SDS011;65945;53.148;17.956;2023-02-01T03:01:51;8.20;;;2.80;;
77010;SDS011;65945;53.148;17.956;2023-02-01T03:04:37;9.30;;;1.70;;
77010;SDS011;65945;53.148;17.956;2023-02-01T03:07:13;10.50;;;1.70;;
77010;SDS011;65945;53.148;17.956;2023-02-01T03:09:43;8.60;;;1.50;;
77010;SDS011;65945;53.148;17.956;2023-02-01T03:12:13;9.10;;;1.40;;
77010;SDS011;65945;53.148;17.956;2023-02-01T03:15:03;13.30;;;2.20;;
77010;SDS011;65945;53.148;17.956;2023-02-01T03:17:37;14.80;;;1.90;;
77010;SDS011;65945;53.148;17.956;2023-02-01T03:20:06;10.40;;;1.40;;
77010;SDS011;65945;53.148;17.956;2023-02-01T03:22:37;12.70;;;2.20;;
77010;SDS011;65945;53.148;17.956;2023-02-01T03:25:09;8.30;;;1.50;;
77010;SDS011;65945;53.148;17.956;2023-02-01T03:27:41;8.20;;;1.50;;
77010;SDS011;65945;53.148;17.956;2023-02-01T03:32:56;8.00;;;1.40;;
77010;SDS011;65945;53.148;17.956;2023-02-01T03:38:01;10.50;;;1.90;;
77010;SDS011;65945;53.148;17.956;2023-02-01T03:40:37;9.60;;;1.60;;
77010;SDS011;65945;53.148;17.956;2023-02-01T03:43:06;11.70;;;2.30;;
77010;SDS011;65945;53.148;17.956;2023-02-01T03:45:43;14.10;;;1.90;;
77010;SDS011;65945;53.148;17.956;2023-02-01T03:48:12;13.50;;;1.50;;
77010;SDS011;65945;53.148;17.956;2023-02-01T03:50:44;8.30;;;1.90;;
77010;SDS011;65945;53.148;17.956;2023-02-01T03:53:16;12.30;;;2.00;;
77010;SDS011;65945;53.148;17.956;2023-02-01T03:55:47;11.10;;;1.30;;
77010;SDS011;65945;53.148;17.956;2023-02-01T03:58:23;11.90;;;1.80;;
77010;SDS011;65945;53.148;17.956;2023-02-01T04:00:51;8.20;;;1.30;;
77010;SDS011;65945;53.148;17.956;2023-02-01T04:03:21;13.00;;;2.40;;
77010;SDS011;65945;53.148;17.956;2023-02-01T04:05:49;11.10;;;1.50;;
77010;SDS011;65945;53.148;17.956;2023-02-01T04:08:18;12.10;;;1.70;;
77010;SDS011;65945;53.148;17.956;2023-02-01T04:10:49;10.50;;;1.80;;
77010;SDS011;65945;53.148;17.956;2023-02-01T04:13:16;7.80;;;1.50;;
77010;SDS011;65945;53.148;17.956;2023-02-01T04:15:42;6.40;;;1.30;;
77010;SDS011;65945;53.148;17.956;2023-02-01T04:18:09;6.40;;;1.60;;
77010;SDS011;65945;53.148;17.956;2023-02-01T04:20:35;9.40;;;1.50;;
77010;SDS011;65945;53.148;17.956;2023-02-01T04:23:02;9.70;;;1.50;;
77010;SDS011;65945;53.148;17.956;2023-02-01T04:25:29;10.00;;;1.40;;
77010;SDS011;65945;53.148;17.956;2023-02-01T04:27:56;10.60;;;1.60;;
77010;SDS011;65945;53.148;17.956;2023-02-01T04:30:22;8.50;;;1.60;;
77010;SDS011;65945;53.148;17.956;2023-02-01T04:32:50;11.40;;;2.10;;
77010;SDS011;65945;53.148;17.956;2023-02-01T04:35:17;10.60;;;2.30;;
77010;SDS011;65945;53.148;17.956;2023-02-01T04:37:44;7.60;;;1.50;;
77010;SDS011;65945;53.148;17.956;2023-02-01T04:40:10;10.60;;;2.00;;
77010;SDS011;65945;53.148;17.956;2023-02-01T04:42:37;7.00;;;1.20;;
77010;SDS011;65945;53.148;17.956;2023-02-01T04:45:04;11.40;;;1.80;;
77010;SDS011;65945;53.148;17.956;2023-02-01T04:47:32;16.00;;;1.90;;
77010;SDS011;65945;53.148;17.956;2023-02-01T04:49:58;12.10;;;1.90;;
77010;SDS011;65945;53.148;17.956;2023-02-01T04:52:25;8.60;;;1.50;;
77010;SDS011;65945;53.148;17.956;2023-02-01T04:54:51;14.90;;;2.50;;
77010;SDS011;65945;53.148;17.956;2023-02-01T04:57:20;12.30;;;2.10;;
77010;SDS011;65945;53.148;17.956;2023-02-01T04:59:47;12.10;;;2.20;;
77010;SDS011;65945;53.148;17.956;2023-02-01T05:02:13;10.60;;;1.80;;
77010;SDS011;65945;53.148;17.956;2023-02-01T05:04:40;9.60;;;1.40;;
77010;SDS011;65945;53.148;17.956;2023-02-01T05:07:06;8.40;;;1.40;;
77010;SDS011;65945;53.148;17.956;2023-02-01T05:09:33;11.00;;;2.10;;
77010;SDS011;65945;53.148;17.956;2023-02-01T05:11:59;14.20;;;2.20;;
77010;SDS011;65945;53.148;17.956;2023-02-01T05:14:45;7.10;;;1.30;;
77010;SDS011;65945;53.148;17.956;2023-02-01T05:17:11;11.60;;;1.80;;
77010;SDS011;65945;53.148;17.956;2023-02-01T05:19:38;11.10;;;2.00;;
77010;SDS011;65945;53.148;17.956;2023-02-01T05:22:04;11.40;;;1.80;;
77010;SDS011;65945;53.148;17.956;2023-02-01T05:24:31;9.30;;;1.70;;
77010;SDS011;65945;53.148;17.956;2023-02-01T05:26:58;13.00;;;1.70;;
77010;SDS011;65945;53.148;17.956;2023-02-01T05:29:24;8.80;;;1.90;;
77010;SDS011;65945;53.148;17.956;2023-02-01T05:31:51;13.80;;;2.60;;
77010;SDS011;65945;53.148;17.956;2023-02-01T05:34:17;15.30;;;2.40;;
77010;SDS011;65945;53.148;17.956;2023-02-01T05:36:44;13.60;;;2.20;;
77010;SDS011;65945;53.148;17.956;2023-02-01T05:39:11;8.90;;;1.70;;
77010;SDS011;65945;53.148;17.956;2023-02-01T05:41:37;20.00;;;2.50;;
77010;SDS011;65945;53.148;17.956;2023-02-01T05:44:04;11.90;;;2.10;;
77010;SDS011;65945;53.148;17.956;2023-02-01T05:46:36;10.20;;;2.40;;
77010;SDS011;65945;53.148;17.956;2023-02-01T05:49:04;11.70;;;2.10;;
77010;SDS011;65945;53.148;17.956;2023-02-01T05:51:31;15.40;;;2.40;;
77010;SDS011;65945;53.148;17.956;2023-02-01T05:53:57;9.50;;;2.10;;
77010;SDS011;65945;53.148;17.956;2023-02-01T05:56:24;11.20;;;2.20;;
77010;SDS011;65945;53.148;17.956;2023-02-01T05:58:51;12.90;;;2.30;;
77010;SDS011;65945;53.148;17.956;2023-02-01T06:01:18;8.80;;;2.00;;
77010;SDS011;65945;53.148;17.956;2023-02-01T06:03:45;14.20;;;2.60;;
77010;SDS011;65945;53.148;17.956;2023-02-01T06:06:11;10.30;;;1.90;;
77010;SDS011;65945;53.148;17.956;2023-02-01T06:08:38;6.50;;;2.00;;
77010;SDS011;65945;53.148;17.956;2023-02-01T06:11:06;12.60;;;2.10;;
77010;SDS011;65945;53.148;17.956;2023-02-01T06:13:34;14.10;;;2.20;;
77010;SDS011;65945;53.148;17.956;2023-02-01T06:16:01;12.40;;;2.00;;
77010;SDS011;65945;53.148;17.956;2023-02-01T06:18:29;8.80;;;1.60;;
77010;SDS011;65945;53.148;17.956;2023-02-01T06:20:57;7.60;;;1.80;;
77010;SDS011;65945;53.148;17.956;2023-02-01T06:23:26;11.70;;;2.50;;
77010;SDS011;65945;53.148;17.956;2023-02-01T06:25:58;13.10;;;2.40;;
77010;SDS011;65945;53.148;17.956;2023-02-01T06:28:29;7.60;;;2.00;;
77010;SDS011;65945;53.148;17.956;2023-02-01T06:30:57;4.80;;;1.70;;
77010;SDS011;65945;53.148;17.956;2023-02-01T06:33:24;10.90;;;1.70;;
77010;SDS011;65945;53.148;17.956;2023-02-01T06:35:58;12.10;;;2.10;;
77010;SDS011;65945;53.148;17.956;2023-02-01T06:38:26;10.00;;;2.30;;
77010;SDS011;65945;53.148;17.956;2023-02-01T06:40:54;14.10;;;2.50;;
77010;SDS011;65945;53.148;17.956;2023-02-01T06:43:22;13.80;;;2.50;;
77010;SDS011;65945;53.148;17.956;2023-02-01T06:45:50;8.20;;;2.20;;
77010;SDS011;65945;53.148;17.956;2023-02-01T06:48:17;7.10;;;1.70;;
77010;SDS011;65945;53.148;17.956;2023-02-01T06:50:44;5.80;;;1.80;;
77010;SDS011;65945;53.148;17.956;2023-02-01T06:53:10;8.50;;;2.00;;
77010;SDS011;65945;53.148;17.956;2023-02-01T06:55:37;11.00;;;2.70;;
77010;SDS011;65945;53.148;17.956;2023-02-01T06:58:04;11.70;;;2.10;;
77010;SDS011;65945;53.148;17.956;2023-02-01T07:00:31;7.80;;;1.80;;
77010;SDS011;65945;53.148;17.956;2023-02-01T07:02:57;11.70;;;2.50;;
77010;SDS011;65945;53.148;17.956;2023-02-01T07:05:25;9.60;;;2.10;;
77010;SDS011;65945;53.148;17.956;2023-02-01T07:07:52;8.40;;;2.20;;
77010;SDS011;65945;53.148;17.956;2023-02-01T07:10:18;10.20;;;2.20;;
77010;SDS011;65945;53.148;17.956;2023-02-01T07:12:45;5.50;;;1.70;;
77010;SDS011;65945;53.148;17.956;2023-02-01T07:15:11;10.00;;;1.50;;
77010;SDS011;65945;53.148;17.956;2023-02-01T07:17:38;7.20;;;1.20;;
77010;SDS011;65945;53.148;17.956;2023-02-01T07:20:05;10.80;;;2.20;;
77010;SDS011;65945;53.148;17.956;2023-02-01T07:22:32;14.10;;;2.80;;
77010;SDS011;65945;53.148;17.956;2023-02-01T07:24:58;9.80;;;2.40;;
77010;SDS011;65945;53.148;17.956;2023-02-01T07:27:25;13.40;;;2.10;;
77010;SDS011;65945;53.148;17.956;2023-02-01T07:29:51;7.70;;;1.60;;
77010;SDS011;65945;53.148;17.956;2023-02-01T07:32:18;9.00;;;1.60;;
77010;SDS011;65945;53.148;17.956;2023-02-01T07:34:45;9.60;;;2.40;;
77010;SDS011;65945;53.148;17.956;2023-02-01T07:37:11;13.50;;;2.60;;
77010;SDS011;65945;53.148;17.956;2023-02-01T07:39:38;11.80;;;2.30;;
77010;SDS011;65945;53.148;17.956;2023-02-01T07:42:05;6.80;;;2.50;;
77010;SDS011;65945;53.148;17.956;2023-02-01T07:44:32;7.40;;;1.80;;
77010;SDS011;65945;53.148;17.956;2023-02-01T07:46:58;8.00;;;2.50;;
77010;SDS011;65945;53.148;17.956;2023-02-01T07:49:25;6.90;;;2.00;;
77010;SDS011;65945;53.148;17.956;2023-02-01T07:51:51;9.40;;;1.80;;
77010;SDS011;65945;53.148;17.956;2023-02-01T07:54:18;8.90;;;2.20;;
77010;SDS011;65945;53.148;17.956;2023-02-01T07:56:45;6.60;;;1.60;;
77010;SDS011;65945;53.148;17.956;2023-02-01T07:59:11;10.70;;;2.50;;
77010;SDS011;65945;53.148;17.956;2023-02-01T08:01:38;12.30;;;2.20;;
77010;SDS011;65945;53.148;17.956;2023-02-01T08:04:04;8.30;;;1.70;;
77010;SDS011;65945;53.148;17.956;2023-02-01T08:06:32;7.00;;;1.50;;
77010;SDS011;65945;53.148;17.956;2023-02-01T08:09:00;16.70;;;2.70;;
77010;SDS011;65945;53.148;17.956;2023-02-01T08:11:28;10.30;;;2.00;;
77010;SDS011;65945;53.148;17.956;2023-02-01T08:13:55;10.90;;;2.20;;
77010;SDS011;65945;53.148;17.956;2023-02-01T08:16:22;8.90;;;2.20;;
77010;SDS011;65945;53.148;17.956;2023-02-01T08:18:49;10.70;;;2.40;;
77010;SDS011;65945;53.148;17.956;2023-02-01T08:21:18;14.60;;;3.30;;
77010;SDS011;65945;53.148;17.956;2023-02-01T08:23:46;11.70;;;2.40;;
77010;SDS011;65945;53.148;17.956;2023-02-01T08:26:17;11.00;;;1.90;;
77010;SDS011;65945;53.148;17.956;2023-02-01T08:28:48;12.70;;;2.80;;
77010;SDS011;65945;53.148;17.956;2023-02-01T08:31:18;11.20;;;2.50;;
77010;SDS011;65945;53.148;17.956;2023-02-01T08:33:48;16.90;;;3.60;;
77010;SDS011;65945;53.148;17.956;2023-02-01T08:36:19;11.40;;;3.10;;
77010;SDS011;65945;53.148;17.956;2023-02-01T08:38:46;9.50;;;1.80;;
77010;SDS011;65945;53.148;17.956;2023-02-01T08:41:14;10.00;;;2.40;;
77010;SDS011;65945;53.148;17.956;2023-02-01T08:43:45;8.50;;;2.20;;
77010;SDS011;65945;53.148;17.956;2023-02-01T08:46:14;7.50;;;1.90;;
77010;SDS011;65945;53.148;17.956;2023-02-01T08:48:41;6.50;;;2.00;;
77010;SDS011;65945;53.148;17.956;2023-02-01T08:51:10;6.30;;;1.70;;
77010;SDS011;65945;53.148;17.956;2023-02-01T08:53:38;10.90;;;2.20;;
77010;SDS011;65945;53.148;17.956;2023-02-01T08:56:09;8.80;;;1.70;;
77010;SDS011;65945;53.148;17.956;2023-02-01T08:58:38;7.70;;;1.90;;
77010;SDS011;65945;53.148;17.956;2023-02-01T09:01:09;5.60;;;2.10;;
77010;SDS011;65945;53.148;17.956;2023-02-01T09:03:38;10.60;;;2.50;;
77010;SDS011;65945;53.148;17.956;2023-02-01T09:06:07;10.10;;;2.30;;
77010;SDS011;65945;53.148;17.956;2023-02-01T09:08:37;9.60;;;2.00;;
77010;SDS011;65945;53.148;17.956;2023-02-01T09:11:06;8.80;;;2.10;;
77010;SDS011;65945;53.148;17.956;2023-02-01T09:13:34;6.90;;;1.60;;
77010;SDS011;65945;53.148;17.956;2023-02-01T09:16:02;8.40;;;1.80;;
77010;SDS011;65945;53.148;17.956;2023-02-01T09:18:29;10.20;;;2.50;;
77010;SDS011;65945;53.148;17.956;2023-02-01T09:20:56;11.40;;;2.30;;
77010;SDS011;65945;53.148;17.956;2023-02-01T09:23:23;13.70;;;4.80;;
77010;SDS011;65945;53.148;17.956;2023-02-01T09:25:49;13.40;;;2.70;;
77010;SDS011;65945;53.148;17.956;2023-02-01T09:28:18;14.10;;;3.30;;
77010;SDS011;65945;53.148;17.956;2023-02-01T09:30:45;12.10;;;2.80;;
77010;SDS011;65945;53.148;17.956;2023-02-01T09:33:11;9.20;;;2.40;;
77010;SDS011;65945;53.148;17.956;2023-02-01T09:35:38;8.00;;;2.50;;
77010;SDS011;65945;53.148;17.956;2023-02-01T09:38:05;12.90;;;2.80;;
77010;SDS011;65945;53.148;17.956;2023-02-01T09:40:33;10.00;;;2.30;;
77010;SDS011;65945;53.148;17.956;2023-02-01T09:43:12;11.00;;;1.80;;
77010;SDS011;65945;53.148;17.956;2023-02-01T09:45:59;14.60;;;2.50;;
77010;SDS011;65945;53.148;17.956;2023-02-01T09:48:38;13.40;;;2.20;;
77010;SDS011;65945;53.148;17.956;2023-02-01T09:51:13;11.10;;;2.10;;
77010;SDS011;65945;53.148;17.956;2023-02-01T09:53:44;5.00;;;1.50;;
77010;SDS011;65945;53.148;17.956;2023-02-01T09:56:21;11.50;;;2.40;;
77010;SDS011;65945;53.148;17.956;2023-02-01T09:59:00;9.00;;;2.50;;
77010;SDS011;65945;53.148;17.956;2023-02-01T10:01:34;11.90;;;2.30;;
77010;SDS011;65945;53.148;17.956;2023-02-01T10:04:05;10.30;;;1.90;;
77010;SDS011;65945;53.148;17.956;2023-02-01T10:06:48;12.10;;;2.90;;
77010;SDS011;65945;53.148;17.956;2023-02-01T10:25:56;9.50;;;1.90;;
77010;SDS011;65945;53.148;17.956;2023-02-01T10:28:32;5.40;;;1.60;;
77010;SDS011;65945;53.148;17.956;2023-02-01T10:31:01;8.40;;;1.90;;
77010;SDS011;65945;53.148;17.956;2023-02-01T10:38:44;6.00;;;1.30;;
77010;SDS011;65945;53.148;17.956;2023-02-01T10:41:13;13.00;;;2.20;;
77010;SDS011;65945;53.148;17.956;2023-02-01T10:43:43;10.40;;;1.80;;
77010;SDS011;65945;53.148;17.956;2023-02-01T10:46:14;9.50;;;2.10;;
77010;SDS011;65945;53.148;17.956;2023-02-01T10:48:40;14.10;;;2.20;;
77010;SDS011;65945;53.148;17.956;2023-02-01T10:56:12;9.60;;;1.90;;
77010;SDS011;65945;53.148;17.956;2023-02-01T10:58:44;9.90;;;2.10;;
77010;SDS011;65945;53.148;17.956;2023-02-01T11:01:17;12.20;;;2.60;;
77010;SDS011;65945;53.148;17.956;2023-02-01T11:03:54;6.80;;;1.80;;
77010;SDS011;65945;53.148;17.956;2023-02-01T11:06:38;18.20;;;2.40;;
77010;SDS011;65945;53.148;17.956;2023-02-01T11:14:16;10.60;;;2.00;;
77010;SDS011;65945;53.148;17.956;2023-02-01T11:19:46;9.50;;;2.70;;
77010;SDS011;65945;53.148;17.956;2023-02-01T11:22:22;11.50;;;2.30;;
77010;SDS011;65945;53.148;17.956;2023-02-01T11:24:51;8.70;;;2.00;;
77010;SDS011;65945;53.148;17.956;2023-02-01T11:27:20;9.30;;;2.00;;
77010;SDS011;65945;53.148;17.956;2023-02-01T11:29:50;15.50;;;2.70;;
77010;SDS011;65945;53.148;17.956;2023-02-01T11:32:20;13.80;;;2.60;;
77010;SDS011;65945;53.148;17.956;2023-02-01T11:34:51;14.50;;;2.30;;
77010;SDS011;65945;53.148;17.956;2023-02-01T11:37:41;11.70;;;2.50;;
77010;SDS011;65945;53.148;17.956;2023-02-01T11:45:34;13.80;;;2.50;;
77010;SDS011;65945;53.148;17.956;2023-02-01T11:48:15;11.90;;;2.60;;
77010;SDS011;65945;53.148;17.956;2023-02-01T11:57:04;5.90;;;1.20;;
77010;SDS011;65945;53.148;17.956;2023-02-01T12:08:05;5.50;;;1.30;;
77010;SDS011;65945;53.148;17.956;2023-02-01T12:10:47;3.80;;;1.50;;
77010;SDS011;65945;53.148;17.956;2023-02-01T12:19:37;6.50;;;1.80;;
77010;SDS011;65945;53.148;17.956;2023-02-01T12:22:29;7.80;;;1.40;;
77010;SDS011;65945;53.148;17.956;2023-02-01T12:25:17;5.50;;;1.20;;
77010;SDS011;65945;53.148;17.956;2023-02-01T12:39:31;3.30;;;1.10;;
77010;SDS011;65945;53.148;17.956;2023-02-01T12:42:16;5.20;;;1.40;;
77010;SDS011;65945;53.148;17.956;2023-02-01T12:44:56;4.60;;;1.40;;
77010;SDS011;65945;53.148;17.956;2023-02-01T12:47:30;5.20;;;1.60;;
77010;SDS011;65945;53.148;17.956;2023-02-01T12:50:12;4.60;;;1.40;;
77010;SDS011;65945;53.148;17.956;2023-02-01T12:52:48;6.60;;;1.80;;
77010;SDS011;65945;53.148;17.956;2023-02-01T12:55:19;5.10;;;2.10;;
77010;SDS011;65945;53.148;17.956;2023-02-01T13:00:38;4.10;;;1.30;;
77010;SDS011;65945;53.148;17.956;2023-02-01T13:05:58;4.50;;;1.50;;
77010;SDS011;65945;53.148;17.956;2023-02-01T13:08:38;3.40;;;1.00;;
77010;SDS011;65945;53.148;17.956;2023-02-01T13:11:29;7.30;;;2.50;;
77010;SDS011;65945;53.148;17.956;2023-02-01T13:14:04;4.30;;;1.40;;
77010;SDS011;65945;53.148;17.956;2023-02-01T13:16:44;8.70;;;2.50;;
77010;SDS011;65945;53.148;17.956;2023-02-01T13:21:48;5.20;;;1.30;;
77010;SDS011;65945;53.148;17.956;2023-02-01T13:26:56;4.60;;;1.40;;
77010;SDS011;65945;53.148;17.956;2023-02-01T13:29:24;3.70;;;1.10;;
77010;SDS011;65945;53.148;17.956;2023-02-01T13:43:19;4.20;;;1.20;;
77010;SDS011;65945;53.148;17.956;2023-02-01T13:45:53;4.00;;;1.90;;
77010;SDS011;65945;53.148;17.956;2023-02-01T13:48:27;6.60;;;2.40;;
77010;SDS011;65945;53.148;17.956;2023-02-01T13:51:04;10.40;;;2.60;;
77010;SDS011;65945;53.148;17.956;2023-02-01T13:53:33;11.80;;;2.90;;
77010;SDS011;65945;53.148;17.956;2023-02-01T13:56:04;7.00;;;2.40;;
77010;SDS011;65945;53.148;17.956;2023-02-01T13:58:38;8.40;;;4.20;;
77010;SDS011;65945;53.148;17.956;2023-02-01T14:03:53;10.60;;;3.10;;
77010;SDS011;65945;53.148;17.956;2023-02-01T14:21:50;6.70;;;2.30;;
77010;SDS011;65945;53.148;17.956;2023-02-01T14:24:32;6.30;;;1.70;;
77010;SDS011;65945;53.148;17.956;2023-02-01T14:29:40;16.20;;;8.20;;
77010;SDS011;65945;53.148;17.956;2023-02-01T14:32:21;8.00;;;2.50;;
77010;SDS011;65945;53.148;17.956;2023-02-01T14:34:52;5.10;;;1.80;;
77010;SDS011;65945;53.148;17.956;2023-02-01T14:37:27;24.90;;;7.20;;
77010;SDS011;65945;53.148;17.956;2023-02-01T14:39:58;12.90;;;4.30;;
77010;SDS011;65945;53.148;17.956;2023-02-01T14:42:49;8.10;;;3.00;;
77010;SDS011;65945;53.148;17.956;2023-02-01T14:47:49;12.40;;;3.00;;
77010;SDS011;65945;53.148;17.956;2023-02-01T14:50:43;9.20;;;3.20;;
77010;SDS011;65945;53.148;17.956;2023-02-01T14:58:41;4.30;;;1.80;;
77010;SDS011;65945;53.148;17.956;2023-02-01T15:01:23;6.50;;;2.60;;
77010;SDS011;65945;53.148;17.956;2023-02-01T15:07:17;7.30;;;2.30;;
77010;SDS011;65945;53.148;17.956;2023-02-01T15:09:27;8.40;;;2.50;;
77010;SDS011;65945;53.148;17.956;2023-02-01T15:17:20;9.70;;;2.60;;
77010;SDS011;65945;53.148;17.956;2023-02-01T15:20:22;9.20;;;2.00;;
77010;SDS011;65945;53.148;17.956;2023-02-01T15:22:52;18.90;;;5.60;;
77010;SDS011;65945;53.148;17.956;2023-02-01T15:25:35;11.10;;;3.30;;
77010;SDS011;65945;53.148;17.956;2023-02-01T15:28:05;10.80;;;2.80;;
77010;SDS011;65945;53.148;17.956;2023-02-01T15:30:36;10.90;;;3.40;;
77010;SDS011;65945;53.148;17.956;2023-02-01T15:33:08;12.40;;;3.80;;
77010;SDS011;65945;53.148;17.956;2023-02-01T15:35:47;14.50;;;3.50;;
77010;SDS011;65945;53.148;17.956;2023-02-01T15:40:54;10.00;;;2.80;;
77010;SDS011;65945;53.148;17.956;2023-02-01T15:46:36;24.60;;;9.90;;
77010;SDS011;65945;53.148;17.956;2023-02-01T15:49:15;31.00;;;14.30;;
77010;SDS011;65945;53.148;17.956;2023-02-01T15:51:44;9.00;;;4.50;;
77010;SDS011;65945;53.148;17.956;2023-02-01T15:54:17;19.80;;;9.30;;
77010;SDS011;65945;53.148;17.956;2023-02-01T15:56:50;21.30;;;7.00;;
77010;SDS011;65945;53.148;17.956;2023-02-01T15:59:19;82.80;;;29.20;;
77010;SDS011;65945;53.148;17.956;2023-02-01T16:01:54;57.10;;;17.00;;
77010;SDS011;65945;53.148;17.956;2023-02-01T16:04:23;82.40;;;24.40;;
77010;SDS011;65945;53.148;17.956;2023-02-01T16:07:00;53.60;;;17.90;;
77010;SDS011;65945;53.148;17.956;2023-02-01T16:09:37;67.40;;;25.70;;
77010;SDS011;65945;53.148;17.956;2023-02-01T16:12:22;21.60;;;7.10;;
77010;SDS011;65945;53.148;17.956;2023-02-01T16:14:55;8.20;;;3.00;;
77010;SDS011;65945;53.148;17.956;2023-02-01T16:17:22;13.80;;;5.70;;
77010;SDS011;65945;53.148;17.956;2023-02-01T16:19:49;11.50;;;4.00;;
77010;SDS011;65945;53.148;17.956;2023-02-01T16:22:16;9.20;;;3.00;;
77010;SDS011;65945;53.148;17.956;2023-02-01T16:24:43;16.00;;;5.10;;
77010;SDS011;65945;53.148;17.956;2023-02-01T16:27:10;6.30;;;2.30;;
77010;SDS011;65945;53.148;17.956;2023-02-01T16:29:36;13.30;;;4.70;;
77010;SDS011;65945;53.148;17.956;2023-02-01T16:32:03;12.20;;;4.70;;
77010;SDS011;65945;53.148;17.956;2023-02-01T16:34:30;8.90;;;3.10;;
77010;SDS011;65945;53.148;17.956;2023-02-01T16:36:57;9.00;;;2.90;;
77010;SDS011;65945;53.148;17.956;2023-02-01T16:39:24;17.10;;;4.70;;
77010;SDS011;65945;53.148;17.956;2023-02-01T16:41:51;8.40;;;2.10;;
77010;SDS011;65945;53.148;17.956;2023-02-01T16:44:18;9.60;;;2.50;;
77010;SDS011;65945;53.148;17.956;2023-02-01T16:46:44;11.80;;;3.30;;
77010;SDS011;65945;53.148;17.956;2023-02-01T16:49:20;6.80;;;2.00;;
77010;SDS011;65945;53.148;17.956;2023-02-01T16:51:49;8.40;;;2.20;;
77010;SDS011;65945;53.148;17.956;2023-02-01T16:54:19;7.60;;;1.70;;
77010;SDS011;65945;53.148;17.956;2023-02-01T16:56:46;4.40;;;1.50;;
77010;SDS011;65945;53.148;17.956;2023-02-01T16:59:13;10.50;;;3.30;;
77010;SDS011;65945;53.148;17.956;2023-02-01T17:01:41;7.70;;;2.60;;
77010;SDS011;65945;53.148;17.956;2023-02-01T17:04:09;9.10;;;3.00;;
77010;SDS011;65945;53.148;17.956;2023-02-01T17:06:36;16.10;;;3.50;;
77010;SDS011;65945;53.148;17.956;2023-02-01T17:09:04;9.90;;;3.10;;
77010;SDS011;65945;53.148;17.956;2023-02-01T17:11:31;7.30;;;2.20;;
77010;SDS011;65945;53.148;17.956;2023-02-01T17:14:18;11.00;;;3.80;;
77010;SDS011;65945;53.148;17.956;2023-02-01T17:16:46;7.80;;;2.40;;
77010;SDS011;65945;53.148;17.956;2023-02-01T17:19:19;9.40;;;2.80;;
77010;SDS011;65945;53.148;17.956;2023-02-01T17:21:49;6.70;;;2.50;;
77010;SDS011;65945;53.148;17.956;2023-02-01T17:24:21;9.90;;;2.90;;
77010;SDS011;65945;53.148;17.956;2023-02-01T17:26:50;11.00;;;3.10;;
77010;SDS011;65945;53.148;17.956;2023-02-01T17:29:17;6.80;;;1.90;;
77010;SDS011;65945;53.148;17.956;2023-02-01T17:31:45;11.50;;;2.90;;
77010;SDS011;65945;53.148;17.956;2023-02-01T17:34:15;5.60;;;2.00;;
77010;SDS011;65945;53.148;17.956;2023-02-01T17:36:42;10.30;;;2.40;;
77010;SDS011;65945;53.148;17.956;2023-02-01T17:39:10;8.70;;;2.60;;